createdAt,value
2022-11-12T00:00:53.075Z,59.64
2022-11-12T00:03:20.313Z,59.87
2022-11-12T00:05:49.654Z,60.17
2022-11-12T00:08:17.043Z,60.17
2022-11-12T00:10:44.376Z,60.55
2022-11-12T00:13:11.575Z,60.65
2022-11-12T00:15:38.472Z,61.30
2022-11-12T00:18:05.444Z,61.28
2022-11-12T00:20:32.235Z,61.11
2022-11-12T00:22:59.060Z,61.29
2022-11-12T00:25:25.825Z,61.24
2022-11-12T00:27:52.916Z,61.45
2022-11-12T00:30:19.786Z,61.53
2022-11-12T00:32:46.479Z,61.36
2022-11-12T00:35:14.132Z,61.34
2022-11-12T00:37:41.351Z,61.43
2022-11-12T00:40:09.023Z,61.76
2022-11-12T00:42:35.894Z,61.77
2022-11-12T00:45:02.765Z,61.80
2022-11-12T00:47:29.559Z,61.96
2022-11-12T00:49:56.458Z,61.91
2022-11-12T00:52:23.249Z,62.17
2022-11-12T00:54:49.931Z,62.25
2022-11-12T00:57:16.742Z,62.06
2022-11-12T00:59:43.539Z,62.32
2022-11-12T01:02:10.251Z,62.31
2022-11-12T01:04:37.067Z,62.39
2022-11-12T01:07:03.825Z,62.33
2022-11-12T01:09:30.540Z,62.54
2022-11-12T01:11:57.364Z,62.54
2022-11-12T01:14:24.230Z,62.37
2022-11-12T01:16:50.993Z,62.52
2022-11-12T01:19:18.381Z,62.26
2022-11-12T01:21:45.143Z,62.35
2022-11-12T01:24:12.191Z,62.24
2022-11-12T01:26:39.357Z,62.15
2022-11-12T01:29:06.166Z,62.42
2022-11-12T01:31:38.413Z,62.01
2022-11-12T01:34:07.898Z,62.44
2022-11-12T01:36:38.693Z,62.43
2022-11-12T01:39:08.213Z,62.45
2022-11-12T01:41:38.668Z,62.33
2022-11-12T01:44:31.404Z,62.52
2022-11-12T01:46:58.185Z,62.66
2022-11-12T01:49:52.337Z,62.74
2022-11-12T01:52:32.125Z,62.60
2022-11-12T01:55:04.883Z,62.49
2022-11-12T01:57:37.176Z,62.34
2022-11-12T02:00:09.346Z,62.42
2022-11-12T02:02:37.115Z,62.02
2022-11-12T02:05:07.451Z,61.75
2022-11-12T02:07:39.657Z,61.62
2022-11-12T02:10:07.968Z,61.56
2022-11-12T02:12:53.791Z,61.67
2022-11-12T02:15:20.523Z,61.87
2022-11-12T02:17:47.295Z,62.01
2022-11-12T02:20:15.124Z,61.67
2022-11-12T02:22:41.928Z,61.96
2022-11-12T02:25:18.902Z,61.58
2022-11-12T02:27:46.032Z,61.78
2022-11-12T02:30:13.392Z,61.68
2022-11-12T02:32:40.236Z,61.67
2022-11-12T02:35:07.488Z,61.82
2022-11-12T02:37:34.174Z,61.62
2022-11-12T02:40:01.023Z,61.34
2022-11-12T02:42:27.838Z,61.26
2022-11-12T02:44:54.602Z,61.18
2022-11-12T02:47:21.458Z,61.11
2022-11-12T02:49:48.142Z,61.34
2022-11-12T02:52:14.831Z,60.90
2022-11-12T02:54:41.638Z,60.91
2022-11-12T02:57:08.345Z,60.76
2022-11-12T02:59:35.041Z,60.80
2022-11-12T03:02:01.871Z,60.84
2022-11-12T03:04:28.593Z,60.71
2022-11-12T03:06:55.305Z,60.60
2022-11-12T03:09:22.152Z,60.60
2022-11-12T03:11:48.849Z,60.55
2022-11-12T03:14:15.588Z,60.83
2022-11-12T03:16:42.365Z,61.02
2022-11-12T03:19:09.220Z,60.96
2022-11-12T03:21:35.931Z,61.04
2022-11-12T03:24:02.803Z,61.22
2022-11-12T03:26:34.536Z,61.44
2022-11-12T03:29:02.497Z,61.41
2022-11-12T03:31:29.396Z,61.61
2022-11-12T03:33:59.330Z,61.75
2022-11-12T03:36:26.043Z,61.93
2022-11-12T03:38:52.871Z,62.08
2022-11-12T03:41:19.580Z,62.02
2022-11-12T03:43:46.701Z,61.86
2022-11-12T03:46:13.779Z,61.75
2022-11-12T03:48:40.466Z,62.07
2022-11-12T03:51:07.176Z,61.87
2022-11-12T03:53:34.173Z,61.80
2022-11-12T03:56:00.910Z,62.06
2022-11-12T03:58:27.848Z,62.07
2022-11-12T04:00:54.844Z,61.87
2022-11-12T04:03:21.735Z,62.23
2022-11-12T04:06:07.577Z,62.19
2022-11-12T04:08:37.484Z,62.58
2022-11-12T04:11:12.752Z,62.19
2022-11-12T04:13:42.185Z,62.22
2022-11-12T04:16:32.272Z,62.32
2022-11-12T04:19:19.419Z,62.29
2022-11-12T04:21:52.343Z,62.09
2022-11-12T04:24:45.360Z,62.44
2022-11-12T04:27:16.743Z,62.21
2022-11-12T04:30:02.820Z,62.30
2022-11-12T04:32:30.779Z,62.33
2022-11-12T04:34:58.273Z,62.39
2022-11-12T04:37:27.088Z,62.43
2022-11-12T04:39:53.944Z,62.30
2022-11-12T04:42:39.624Z,62.42
2022-11-12T04:45:09.421Z,62.65
2022-11-12T04:47:39.167Z,62.60
2022-11-12T04:50:14.812Z,62.62
2022-11-12T04:52:41.767Z,62.53
2022-11-12T04:55:09.323Z,62.70
2022-11-12T04:57:36.573Z,62.57
2022-11-12T05:00:05.241Z,62.75
2022-11-12T05:02:31.933Z,62.68
2022-11-12T05:04:58.778Z,62.81
2022-11-12T05:07:25.479Z,62.77
2022-11-12T05:09:52.287Z,62.82
2022-11-12T05:12:19.097Z,62.77
2022-11-12T05:14:45.812Z,62.55
2022-11-12T05:17:12.597Z,62.75
2022-11-12T05:19:39.485Z,62.84
2022-11-12T05:22:06.278Z,62.82
2022-11-12T05:24:42.520Z,62.81
2022-11-12T05:27:20.774Z,62.72
2022-11-12T05:29:47.618Z,63.02
2022-11-12T05:32:16.066Z,62.90
2022-11-12T05:34:42.922Z,63.23
2022-11-12T05:37:11.452Z,63.15
2022-11-12T05:39:38.573Z,63.28
2022-11-12T05:42:13.064Z,63.57
2022-11-12T05:44:41.035Z,63.43
2022-11-12T05:47:07.911Z,63.70
2022-11-12T05:49:34.636Z,63.76
2022-11-12T05:52:01.510Z,63.90
2022-11-12T05:54:28.258Z,63.51
2022-11-12T05:56:54.967Z,63.54
2022-11-12T05:59:22.518Z,63.46
2022-11-12T06:01:49.453Z,63.43
2022-11-12T06:04:16.904Z,63.23
2022-11-12T06:06:44.522Z,62.82
2022-11-12T06:09:11.877Z,62.76
2022-11-12T06:11:39.119Z,62.73
2022-11-12T06:14:06.095Z,62.74
2022-11-12T06:16:33.432Z,62.45
2022-11-12T06:19:00.582Z,62.41
2022-11-12T06:21:27.946Z,62.57
2022-11-12T06:23:57.964Z,62.77
2022-11-12T06:26:26.610Z,62.79
2022-11-12T06:28:53.669Z,62.90
2022-11-12T06:31:21.712Z,63.22
2022-11-12T06:33:49.158Z,63.15
2022-11-12T06:36:18.537Z,63.17
2022-11-12T06:38:45.703Z,63.24
2022-11-12T06:41:14.251Z,63.04
2022-11-12T06:43:41.409Z,63.05
2022-11-12T06:46:14.344Z,63.02
2022-11-12T06:48:41.383Z,63.17
2022-11-12T06:51:17.742Z,63.00
2022-11-12T06:53:45.014Z,63.18
2022-11-12T06:56:12.613Z,62.92
2022-11-12T06:58:39.991Z,62.89
2022-11-12T07:01:12.416Z,62.67
2022-11-12T07:03:41.018Z,62.50
2022-11-12T07:06:10.085Z,62.60
2022-11-12T07:08:37.693Z,62.40
2022-11-12T07:11:05.290Z,62.19
2022-11-12T07:13:33.587Z,62.50
2022-11-12T07:16:01.425Z,62.56
2022-11-12T07:18:29.669Z,62.68
2022-11-12T07:21:04.421Z,62.46
2022-11-12T07:23:32.896Z,62.52
2022-11-12T07:26:14.324Z,62.44
2022-11-12T07:28:41.883Z,62.66
2022-11-12T07:31:12.018Z,62.44
2022-11-12T07:33:38.762Z,63.28
2022-11-12T07:36:06.953Z,62.90
2022-11-12T07:38:36.793Z,62.76
2022-11-12T07:41:11.717Z,62.84
2022-11-12T07:43:39.792Z,62.59
2022-11-12T07:46:12.071Z,62.00
2022-11-12T07:48:40.143Z,61.88
2022-11-12T07:51:13.117Z,61.51
2022-11-12T07:53:40.667Z,61.35
2022-11-12T07:56:07.908Z,61.17
2022-11-12T07:58:35.919Z,60.74
2022-11-12T08:01:09.469Z,60.47
2022-11-12T08:03:36.807Z,60.47
2022-11-12T08:06:04.367Z,59.98
2022-11-12T08:08:31.051Z,59.56
2022-11-12T08:10:59.101Z,59.30
2022-11-12T08:13:26.114Z,58.73
2022-11-12T08:15:53.020Z,57.80
2022-11-12T08:18:19.860Z,57.73
2022-11-12T08:20:49.364Z,56.82
2022-11-12T08:23:16.116Z,56.31
2022-11-12T08:25:43.001Z,56.01
2022-11-12T08:28:09.739Z,55.44
2022-11-12T08:30:36.507Z,54.64
2022-11-12T08:33:05.789Z,54.39
2022-11-12T08:35:33.238Z,53.34
2022-11-12T08:38:01.595Z,52.72
2022-11-12T08:40:30.229Z,52.49
2022-11-12T08:43:05.444Z,52.29
2022-11-12T08:45:33.883Z,51.43
2022-11-12T08:48:19.115Z,51.27
2022-11-12T08:50:46.149Z,50.92
2022-11-12T08:53:14.370Z,50.72
2022-11-12T08:55:41.071Z,50.49
2022-11-12T08:58:08.412Z,49.86
2022-11-12T09:00:39.300Z,49.27
2022-11-12T09:03:07.862Z,48.86
2022-11-12T09:05:35.903Z,47.92
2022-11-12T09:08:05.753Z,47.14
2022-11-12T09:10:33.154Z,46.81
2022-11-12T09:13:00.148Z,46.45
2022-11-12T09:15:37.302Z,46.71
2022-11-12T09:18:10.965Z,45.47
2022-11-12T09:20:37.779Z,45.35
2022-11-12T09:23:10.893Z,45.19
2022-11-12T09:25:38.279Z,43.95
2022-11-12T09:28:15.182Z,43.93
2022-11-12T09:30:47.561Z,44.02
2022-11-12T09:33:16.450Z,42.77
2022-11-12T09:35:43.859Z,43.21
2022-11-12T09:38:10.558Z,42.92
2022-11-12T09:40:54.385Z,42.63
2022-11-12T09:43:27.835Z,42.70
2022-11-12T09:46:21.492Z,42.41
2022-11-12T09:48:51.915Z,42.18
2022-11-12T09:51:31.514Z,42.23
2022-11-12T09:54:01.818Z,42.18
2022-11-12T09:56:29.921Z,41.23
2022-11-12T09:58:57.235Z,41.02
2022-11-12T10:01:36.303Z,39.68
2022-11-12T10:04:27.681Z,39.86
2022-11-12T10:07:04.345Z,40.78
2022-11-12T10:10:09.477Z,40.39
2022-11-12T10:12:38.985Z,39.45
2022-11-12T10:16:02.691Z,39.27
2022-11-12T10:18:29.681Z,40.40
2022-11-12T10:21:04.435Z,39.73
2022-11-12T10:23:43.978Z,38.13
2022-11-12T10:26:18.218Z,38.18
2022-11-12T10:29:01.535Z,37.96
2022-11-12T10:31:28.413Z,39.15
2022-11-12T10:34:11.595Z,38.54
2022-11-12T10:36:40.582Z,39.04
2022-11-12T10:39:07.299Z,39.14
2022-11-12T10:41:34.599Z,37.57
2022-11-12T10:44:06.489Z,38.26
2022-11-12T10:46:36.448Z,38.54
2022-11-12T10:49:05.119Z,37.76
2022-11-12T10:51:37.187Z,37.94
2022-11-12T10:54:20.953Z,37.39
2022-11-12T10:56:55.019Z,37.80
2022-11-12T10:59:25.649Z,37.41
2022-11-12T11:01:59.243Z,36.13
2022-11-12T11:04:35.926Z,37.46
2022-11-12T11:07:16.440Z,37.35
2022-11-12T11:09:57.520Z,37.43
2022-11-12T11:12:30.669Z,37.54
2022-11-12T11:15:22.136Z,36.78
2022-11-12T11:17:49.217Z,36.50
2022-11-12T11:20:25.992Z,34.94
2022-11-12T11:22:59.029Z,35.02
2022-11-12T11:25:29.935Z,34.94
2022-11-12T11:28:26.970Z,34.10
2022-11-12T11:31:27.322Z,34.02
2022-11-12T11:34:09.314Z,33.83
2022-11-12T11:36:35.965Z,33.51
2022-11-12T11:39:30.598Z,33.25
2022-11-12T11:42:22.047Z,32.38
2022-11-12T11:45:24.871Z,32.42
2022-11-12T11:48:01.700Z,31.12
2022-11-12T11:50:33.958Z,30.13
2022-11-12T11:53:26.124Z,28.47
2022-11-12T11:56:14.293Z,28.85
2022-11-12T11:59:17.231Z,28.44
2022-11-12T12:02:11.500Z,29.10
2022-11-12T12:04:58.383Z,28.38
2022-11-12T12:07:56.249Z,29.37
2022-11-12T12:13:51.298Z,28.42
2022-11-12T12:16:29.571Z,27.50
2022-11-12T12:19:01.907Z,26.15
2022-11-12T12:21:32.181Z,26.92
2022-11-12T12:24:06.085Z,26.42
2022-11-12T12:26:57.565Z,27.70
2022-11-12T12:29:50.233Z,25.72
2022-11-12T12:32:40.452Z,27.02
2022-11-12T12:35:26.460Z,26.80
2022-11-12T12:38:07.878Z,26.41
2022-11-12T12:40:37.239Z,25.55
2022-11-12T12:43:44.066Z,26.02
2022-11-12T12:46:13.421Z,24.54
2022-11-12T12:48:46.310Z,23.69
2022-11-12T12:51:13.721Z,24.35
2022-11-12T12:53:40.801Z,23.99
2022-11-12T12:56:10.660Z,23.69
2022-11-12T12:58:45.093Z,22.98
2022-11-12T13:01:35.034Z,22.88
2022-11-12T13:04:04.783Z,23.68
2022-11-12T13:06:38.577Z,24.34
2022-11-12T13:09:20.783Z,24.80
2022-11-12T13:12:04.962Z,26.13
2022-11-12T13:14:34.291Z,28.62
2022-11-12T13:17:02.056Z,30.78
2022-11-12T13:19:55.692Z,32.19
2022-11-12T13:22:24.117Z,33.49
2022-11-12T13:25:06.049Z,35.86
2022-11-12T13:27:45.181Z,37.08
2022-11-12T13:30:16.489Z,37.59
2022-11-12T13:32:51.975Z,38.56
2022-11-12T13:35:18.804Z,39.30
2022-11-12T13:37:47.517Z,39.78
2022-11-12T13:40:30.921Z,40.61
2022-11-12T13:43:27.960Z,41.03
2022-11-12T13:46:06.865Z,41.26
2022-11-12T13:48:37.222Z,41.68
2022-11-12T13:51:17.074Z,42.99
2022-11-12T13:53:43.784Z,43.02
2022-11-12T13:56:12.582Z,42.90
2022-11-12T13:58:44.301Z,43.33
2022-11-12T14:01:12.821Z,43.08
2022-11-12T14:03:46.039Z,43.49
2022-11-12T14:06:29.044Z,43.17
2022-11-12T14:09:01.297Z,42.98
2022-11-12T14:11:46.132Z,43.52
2022-11-12T14:14:32.402Z,43.99
2022-11-12T14:17:18.152Z,44.19
2022-11-12T14:19:47.896Z,44.17
2022-11-12T14:22:18.609Z,44.19
2022-11-12T14:24:48.225Z,44.48
2022-11-12T14:27:33.984Z,44.27
2022-11-12T14:30:17.840Z,44.46
2022-11-12T14:32:52.730Z,44.76
2022-11-12T14:35:27.619Z,44.52
2022-11-12T14:37:59.853Z,44.32
2022-11-12T14:40:30.809Z,44.55
2022-11-12T14:42:57.724Z,44.69
2022-11-12T14:45:25.050Z,44.61
2022-11-12T14:47:55.036Z,44.43
2022-11-12T14:50:34.564Z,44.52
2022-11-12T14:53:34.645Z,44.40
2022-11-12T14:56:03.628Z,44.67
2022-11-12T14:58:32.330Z,44.70
2022-11-12T15:00:59.526Z,44.68
2022-11-12T15:03:32.483Z,44.70
2022-11-12T15:06:11.432Z,45.07
2022-11-12T15:08:40.345Z,45.28
2022-11-12T15:11:25.000Z,45.03
2022-11-12T15:13:54.588Z,45.04
2022-11-12T15:16:25.801Z,44.80
2022-11-12T15:19:06.965Z,44.83
2022-11-12T15:21:34.336Z,44.93
2022-11-12T15:24:18.013Z,45.32
2022-11-12T15:26:47.347Z,45.75
2022-11-12T15:29:23.329Z,45.68
2022-11-12T15:32:23.987Z,45.48
2022-11-12T15:34:52.242Z,45.57
2022-11-12T15:37:18.948Z,45.85
2022-11-12T15:39:51.192Z,45.02
2022-11-12T15:42:25.828Z,44.90
2022-11-12T15:45:02.494Z,45.22
2022-11-12T15:47:29.821Z,45.14
2022-11-12T15:49:59.089Z,44.90
2022-11-12T15:52:25.807Z,45.17
2022-11-12T15:54:52.892Z,45.21
2022-11-12T15:57:32.179Z,45.01
2022-11-12T16:00:08.639Z,45.34
2022-11-12T16:02:35.805Z,45.55
2022-11-12T16:05:02.579Z,45.94
2022-11-12T16:07:29.421Z,45.50
2022-11-12T16:09:56.183Z,45.58
2022-11-12T16:12:23.040Z,45.97
2022-11-12T16:14:50.102Z,45.93
2022-11-12T16:17:18.684Z,45.71
2022-11-12T16:19:45.396Z,45.88
2022-11-12T16:22:15.215Z,46.00
2022-11-12T16:24:42.431Z,46.47
2022-11-12T16:27:15.865Z,46.04
2022-11-12T16:29:42.598Z,46.22
2022-11-12T16:32:14.120Z,46.33
2022-11-12T16:34:41.101Z,46.31
2022-11-12T16:37:12.902Z,46.26
2022-11-12T16:39:39.816Z,46.52
2022-11-12T16:42:09.009Z,46.74
2022-11-12T16:44:35.699Z,46.63
2022-11-12T16:47:04.480Z,47.31
2022-11-12T16:49:35.909Z,47.82
2022-11-12T16:52:05.328Z,48.15
2022-11-12T16:54:32.047Z,48.83
2022-11-12T16:56:58.937Z,49.41
2022-11-12T16:59:25.648Z,49.65
2022-11-12T17:01:52.359Z,50.10
2022-11-12T17:04:19.228Z,49.97
2022-11-12T17:06:46.001Z,50.21
2022-11-12T17:09:12.937Z,50.76
2022-11-12T17:11:39.765Z,50.48
2022-11-12T17:14:06.888Z,50.51
2022-11-12T17:16:33.689Z,50.63
2022-11-12T17:19:04.323Z,50.53
2022-11-12T17:21:31.249Z,50.70
2022-11-12T17:23:58.202Z,50.94
2022-11-12T17:26:25.123Z,51.38
2022-11-12T17:28:59.172Z,51.75
2022-11-12T17:31:28.132Z,52.00
2022-11-12T17:33:54.832Z,52.09
2022-11-12T17:36:24.627Z,51.91
2022-11-12T17:38:59.441Z,52.24
2022-11-12T17:41:30.912Z,52.26
2022-11-12T17:43:59.895Z,52.25
2022-11-12T17:46:27.331Z,52.25
2022-11-12T17:48:55.606Z,52.23
2022-11-12T17:51:25.609Z,52.19
2022-11-12T17:53:52.669Z,52.71
2022-11-12T17:56:22.191Z,52.52
2022-11-12T17:58:50.135Z,52.71
2022-11-12T18:01:28.000Z,52.90
2022-11-12T18:03:56.596Z,53.45
2022-11-12T18:06:26.373Z,53.62
2022-11-12T18:08:54.563Z,53.79
2022-11-12T18:11:22.274Z,54.14
2022-11-12T18:13:49.111Z,54.58
2022-11-12T18:16:19.409Z,54.71
2022-11-12T18:18:46.920Z,55.29
2022-11-12T18:21:14.311Z,55.17
2022-11-12T18:23:43.817Z,54.96
2022-11-12T18:26:15.495Z,54.96
2022-11-12T18:28:42.694Z,55.00
2022-11-12T18:31:12.381Z,54.76
2022-11-12T18:33:39.429Z,54.81
2022-11-12T18:36:10.218Z,55.38
2022-11-12T18:38:37.508Z,55.75
2022-11-12T18:41:08.759Z,56.05
2022-11-12T18:43:40.066Z,56.64
2022-11-12T18:46:08.559Z,57.08
2022-11-12T18:48:38.461Z,57.51
2022-11-12T18:51:07.915Z,58.29
2022-11-12T18:53:35.422Z,58.70
2022-11-12T18:56:08.099Z,58.98
2022-11-12T18:58:35.639Z,59.04
2022-11-12T19:01:16.172Z,59.05
2022-11-12T19:03:44.125Z,59.40
2022-11-12T19:06:14.966Z,59.41
2022-11-12T19:08:42.171Z,59.59
2022-11-12T19:11:14.605Z,59.28
2022-11-12T19:13:42.444Z,59.03
2022-11-12T19:16:14.582Z,59.12
2022-11-12T19:18:42.464Z,59.52
2022-11-12T19:21:14.697Z,59.67
2022-11-12T19:23:43.165Z,59.70
2022-11-12T19:26:17.532Z,59.99
2022-11-12T19:28:45.406Z,60.47
2022-11-12T19:31:20.584Z,60.86
2022-11-12T19:33:47.983Z,60.97
2022-11-12T19:36:25.718Z,61.54
2022-11-12T19:39:02.605Z,62.31
2022-11-12T19:41:29.547Z,62.42
2022-11-12T19:43:56.333Z,62.12
2022-11-12T19:46:23.100Z,62.69
2022-11-12T19:48:49.793Z,63.38
2022-11-12T19:51:16.535Z,63.57
2022-11-12T19:53:47.132Z,64.05
2022-11-12T19:56:17.380Z,64.82
2022-11-12T19:58:48.772Z,65.36
2022-11-12T20:01:18.119Z,65.53
2022-11-12T20:03:44.991Z,65.79
2022-11-12T20:06:15.885Z,66.35
2022-11-12T20:08:42.635Z,66.26
2022-11-12T20:11:10.221Z,66.24
2022-11-12T20:13:37.613Z,66.33
2022-11-12T20:16:13.521Z,67.12
2022-11-12T20:18:40.788Z,67.30
2022-11-12T20:21:09.343Z,67.79
2022-11-12T20:23:37.047Z,67.70
2022-11-12T20:26:10.043Z,68.19
2022-11-12T20:28:38.049Z,68.49
2022-11-12T20:31:11.507Z,68.74
2022-11-12T20:33:42.260Z,68.99
2022-11-12T20:36:15.310Z,68.68
2022-11-12T20:38:44.388Z,69.07
2022-11-12T20:41:16.759Z,69.39
2022-11-12T20:43:43.543Z,69.43
2022-11-12T20:46:12.723Z,68.98
2022-11-12T20:48:43.260Z,69.50
2022-11-12T20:51:23.666Z,69.71
2022-11-12T20:53:58.956Z,69.69
2022-11-12T20:56:29.001Z,69.44
2022-11-12T20:58:55.980Z,69.61
2022-11-12T21:01:24.584Z,69.56
2022-11-12T21:03:51.926Z,69.62
2022-11-12T21:06:23.406Z,70.08
2022-11-12T21:08:50.892Z,69.99
2022-11-12T21:11:20.806Z,69.96
2022-11-12T21:13:47.722Z,70.12
2022-11-12T21:16:15.211Z,70.21
2022-11-12T21:18:43.095Z,70.27
2022-11-12T21:21:16.890Z,70.33
2022-11-12T21:23:44.888Z,70.49
2022-11-12T21:26:15.998Z,70.50
2022-11-12T21:28:50.597Z,70.61
2022-11-12T21:31:29.684Z,70.84
2022-11-12T21:34:03.545Z,71.52
2022-11-12T21:36:32.178Z,71.47
2022-11-12T21:38:59.064Z,71.99
2022-11-12T21:41:28.316Z,71.64
2022-11-12T21:43:55.502Z,71.92
2022-11-12T21:46:25.936Z,71.97
2022-11-12T21:48:55.407Z,71.60
2022-11-12T21:51:30.064Z,71.58
2022-11-12T21:54:02.606Z,71.72
2022-11-12T21:56:30.395Z,71.61
2022-11-12T21:59:00.717Z,71.66
2022-11-12T22:01:31.880Z,71.75
2022-11-12T22:04:01.993Z,71.64
2022-11-12T22:06:29.449Z,72.29
2022-11-12T22:08:57.594Z,71.70
2022-11-12T22:11:25.512Z,71.20
2022-11-12T22:13:52.266Z,71.02
2022-11-12T22:16:21.766Z,71.13
2022-11-12T22:18:51.443Z,71.33
2022-11-12T22:21:24.151Z,71.14
2022-11-12T22:23:51.076Z,71.07
2022-11-12T22:26:22.895Z,70.63
2022-11-12T22:28:49.799Z,70.49
2022-11-12T22:31:19.421Z,70.41
2022-11-12T22:33:46.319Z,70.26
2022-11-12T22:36:15.956Z,70.28
2022-11-12T22:38:45.095Z,70.13
2022-11-12T22:41:17.368Z,70.41
2022-11-12T22:43:47.412Z,70.03
2022-11-12T22:46:15.606Z,71.16
2022-11-12T22:48:42.534Z,70.62
2022-11-12T22:51:18.015Z,70.58
2022-11-12T22:53:45.203Z,70.61
2022-11-12T22:56:15.642Z,70.59
2022-11-12T22:58:44.651Z,70.66
2022-11-12T23:01:23.130Z,71.07
2022-11-12T23:03:52.172Z,70.82
2022-11-12T23:06:19.295Z,71.10
2022-11-12T23:08:46.386Z,70.84
2022-11-12T23:11:15.651Z,70.80
2022-11-12T23:13:43.120Z,71.23
2022-11-12T23:16:19.729Z,71.34
2022-11-12T23:18:47.062Z,71.36
2022-11-12T23:21:25.624Z,71.35
2022-11-12T23:23:52.624Z,71.12
2022-11-12T23:26:25.119Z,71.20
2022-11-12T23:28:52.287Z,70.95
2022-11-12T23:31:22.271Z,71.48
2022-11-12T23:33:51.434Z,71.36
2022-11-12T23:36:18.839Z,71.61
2022-11-12T23:38:45.930Z,71.76
2022-11-12T23:41:15.112Z,71.48
2022-11-12T23:43:42.155Z,71.83
2022-11-12T23:46:09.228Z,71.63
2022-11-12T23:48:36.150Z,71.51
2022-11-12T23:51:11.180Z,71.56
2022-11-12T23:53:39.150Z,71.96
2022-11-12T23:56:07.506Z,72.08
2022-11-12T23:58:34.218Z,72.25
